sensor_id;sensor_type;location;lat;lon;timestamp;temperature;humidity
19567;DHT22;9930;49.240;8.548;2023-01-26T00:01:54;5.20;78.70
19567;DHT22;9930;49.240;8.548;2023-01-26T00:04:25;5.20;78.80
19567;DHT22;9930;49.240;8.548;2023-01-26T00:06:54;5.20;79.00
19567;DHT22;9930;49.240;8.548;2023-01-26T00:09:33;5.20;79.00
19567;DHT22;9930;49.240;8.548;2023-01-26T00:11:59;5.20;79.10
19567;DHT22;9930;49.240;8.548;2023-01-26T00:14:30;5.20;79.20
19567;DHT22;9930;49.240;8.548;2023-01-26T00:17:17;5.20;79.10
19567;DHT22;9930;49.240;8.548;2023-01-26T00:19:58;5.20;79.20
19567;DHT22;9930;49.240;8.548;2023-01-26T00:22:28;5.30;79.20
19567;DHT22;9930;49.240;8.548;2023-01-26T00:24:58;5.20;79.10
19567;DHT22;9930;49.240;8.548;2023-01-26T00:27:31;5.20;79.10
19567;DHT22;9930;49.240;8.548;2023-01-26T00:29:59;5.20;79.10
19567;DHT22;9930;49.240;8.548;2023-01-26T00:32:25;5.30;79.30
19567;DHT22;9930;49.240;8.548;2023-01-26T00:34:54;5.20;79.30
19567;DHT22;9930;49.240;8.548;2023-01-26T00:37:19;5.20;79.40
19567;DHT22;9930;49.240;8.548;2023-01-26T00:39:45;5.20;79.40
19567;DHT22;9930;49.240;8.548;2023-01-26T00:42:11;5.20;79.40
19567;DHT22;9930;49.240;8.548;2023-01-26T00:44:42;5.20;79.40
19567;DHT22;9930;49.240;8.548;2023-01-26T00:47:12;5.20;79.50
19567;DHT22;9930;49.240;8.548;2023-01-26T00:49:38;5.20;79.40
19567;DHT22;9930;49.240;8.548;2023-01-26T00:52:04;5.20;79.40
19567;DHT22;9930;49.240;8.548;2023-01-26T00:54:31;5.20;79.40
19567;DHT22;9930;49.240;8.548;2023-01-26T00:56:59;5.10;79.40
19567;DHT22;9930;49.240;8.548;2023-01-26T00:59:28;5.20;79.50
19567;DHT22;9930;49.240;8.548;2023-01-26T01:01:59;5.20;79.40
19567;DHT22;9930;49.240;8.548;2023-01-26T01:04:29;5.10;79.40
19567;DHT22;9930;49.240;8.548;2023-01-26T01:06:59;5.10;79.50
19567;DHT22;9930;49.240;8.548;2023-01-26T01:09:25;5.10;79.50
19567;DHT22;9930;49.240;8.548;2023-01-26T01:11:59;5.20;79.60
19567;DHT22;9930;49.240;8.548;2023-01-26T01:14:31;5.10;79.40
19567;DHT22;9930;49.240;8.548;2023-01-26T01:16:59;5.10;79.30
19567;DHT22;9930;49.240;8.548;2023-01-26T01:19:28;5.10;79.40
19567;DHT22;9930;49.240;8.548;2023-01-26T01:21:55;5.10;79.40
19567;DHT22;9930;49.240;8.548;2023-01-26T01:24:24;5.00;79.40
19567;DHT22;9930;49.240;8.548;2023-01-26T01:26:50;5.10;79.60
19567;DHT22;9930;49.240;8.548;2023-01-26T01:29:15;5.10;79.60
19567;DHT22;9930;49.240;8.548;2023-01-26T01:31:44;5.00;79.60
19567;DHT22;9930;49.240;8.548;2023-01-26T01:34:15;5.00;79.60
19567;DHT22;9930;49.240;8.548;2023-01-26T01:36:40;5.00;79.60
19567;DHT22;9930;49.240;8.548;2023-01-26T01:39:06;5.00;79.60
19567;DHT22;9930;49.240;8.548;2023-01-26T01:41:32;5.00;79.60
19567;DHT22;9930;49.240;8.548;2023-01-26T01:44:23;5.00;79.60
19567;DHT22;9930;49.240;8.548;2023-01-26T01:46:57;5.00;79.70
19567;DHT22;9930;49.240;8.548;2023-01-26T01:49:41;5.00;79.70
19567;DHT22;9930;49.240;8.548;2023-01-26T01:52:20;5.00;79.70
19567;DHT22;9930;49.240;8.548;2023-01-26T01:55:11;5.00;79.80
19567;DHT22;9930;49.240;8.548;2023-01-26T01:57:53;4.90;79.80
19567;DHT22;9930;49.240;8.548;2023-01-26T02:00:35;4.90;79.80
19567;DHT22;9930;49.240;8.548;2023-01-26T02:03:06;4.90;79.80
19567;DHT22;9930;49.240;8.548;2023-01-26T02:08:51;4.90;79.90
19567;DHT22;9930;49.240;8.548;2023-01-26T02:11:27;4.80;79.80
19567;DHT22;9930;49.240;8.548;2023-01-26T02:14:03;4.80;79.80
19567;DHT22;9930;49.240;8.548;2023-01-26T02:16:33;4.80;79.80
19567;DHT22;9930;49.240;8.548;2023-01-26T02:19:01;4.80;79.90
19567;DHT22;9930;49.240;8.548;2023-01-26T02:21:29;4.80;80.00
19567;DHT22;9930;49.240;8.548;2023-01-26T02:26:32;4.80;80.10
19567;DHT22;9930;49.240;8.548;2023-01-26T02:29:00;4.80;80.10
19567;DHT22;9930;49.240;8.548;2023-01-26T02:31:29;4.80;80.10
19567;DHT22;9930;49.240;8.548;2023-01-26T02:33:59;4.80;80.10
19567;DHT22;9930;49.240;8.548;2023-01-26T02:36:30;4.80;80.20
19567;DHT22;9930;49.240;8.548;2023-01-26T02:42:07;4.80;80.40
19567;DHT22;9930;49.240;8.548;2023-01-26T02:44:51;4.70;80.30
19567;DHT22;9930;49.240;8.548;2023-01-26T02:47:17;4.80;80.40
19567;DHT22;9930;49.240;8.548;2023-01-26T02:49:44;4.80;80.50
19567;DHT22;9930;49.240;8.548;2023-01-26T02:52:24;4.80;80.50
19567;DHT22;9930;49.240;8.548;2023-01-26T02:55:03;4.80;80.50
19567;DHT22;9930;49.240;8.548;2023-01-26T02:57:55;4.80;81.20
19567;DHT22;9930;49.240;8.548;2023-01-26T03:00:34;4.80;80.60
19567;DHT22;9930;49.240;8.548;2023-01-26T03:03:13;4.80;80.60
19567;DHT22;9930;49.240;8.548;2023-01-26T03:05:43;4.80;80.60
19567;DHT22;9930;49.240;8.548;2023-01-26T03:08:13;4.80;80.60
19567;DHT22;9930;49.240;8.548;2023-01-26T03:10:39;4.80;80.50
19567;DHT22;9930;49.240;8.548;2023-01-26T03:13:07;4.80;80.60
19567;DHT22;9930;49.240;8.548;2023-01-26T03:15:33;4.80;80.60
19567;DHT22;9930;49.240;8.548;2023-01-26T03:18:14;4.70;80.50
19567;DHT22;9930;49.240;8.548;2023-01-26T03:21:06;4.70;80.50
19567;DHT22;9930;49.240;8.548;2023-01-26T03:23:54;4.70;80.40
19567;DHT22;9930;49.240;8.548;2023-01-26T03:26:38;4.70;80.40
19567;DHT22;9930;49.240;8.548;2023-01-26T03:29:25;4.70;80.30
19567;DHT22;9930;49.240;8.548;2023-01-26T03:31:55;4.70;80.30
19567;DHT22;9930;49.240;8.548;2023-01-26T03:34:27;4.60;80.40
19567;DHT22;9930;49.240;8.548;2023-01-26T03:36:55;4.60;80.30
19567;DHT22;9930;49.240;8.548;2023-01-26T03:39:25;4.50;80.30
19567;DHT22;9930;49.240;8.548;2023-01-26T03:42:14;4.50;80.40
19567;DHT22;9930;49.240;8.548;2023-01-26T03:44:59;4.50;80.50
19567;DHT22;9930;49.240;8.548;2023-01-26T03:47:46;4.50;80.40
19567;DHT22;9930;49.240;8.548;2023-01-26T03:50:30;4.40;80.40
19567;DHT22;9930;49.240;8.548;2023-01-26T03:53:17;4.40;80.40
19567;DHT22;9930;49.240;8.548;2023-01-26T03:56:06;4.40;80.60
19567;DHT22;9930;49.240;8.548;2023-01-26T03:58:45;4.30;80.50
19567;DHT22;9930;49.240;8.548;2023-01-26T04:01:12;4.30;80.70
19567;DHT22;9930;49.240;8.548;2023-01-26T04:03:49;4.30;80.80
19567;DHT22;9930;49.240;8.548;2023-01-26T04:06:34;4.30;81.00
19567;DHT22;9930;49.240;8.548;2023-01-26T04:09:20;4.30;80.90
19567;DHT22;9930;49.240;8.548;2023-01-26T04:11:48;4.30;80.90
19567;DHT22;9930;49.240;8.548;2023-01-26T04:14:19;4.30;81.00
19567;DHT22;9930;49.240;8.548;2023-01-26T04:17:04;4.30;81.00
19567;DHT22;9930;49.240;8.548;2023-01-26T04:19:51;4.30;81.10
19567;DHT22;9930;49.240;8.548;2023-01-26T04:22:37;4.30;81.10
19567;DHT22;9930;49.240;8.548;2023-01-26T04:25:17;4.20;81.30
19567;DHT22;9930;49.240;8.548;2023-01-26T04:27:44;4.30;82.10
19567;DHT22;9930;49.240;8.548;2023-01-26T04:30:14;4.30;81.00
19567;DHT22;9930;49.240;8.548;2023-01-26T04:32:41;4.30;81.00
19567;DHT22;9930;49.240;8.548;2023-01-26T04:35:08;4.20;80.80
19567;DHT22;9930;49.240;8.548;2023-01-26T04:37:37;4.20;81.00
19567;DHT22;9930;49.240;8.548;2023-01-26T04:40:04;4.20;81.20
19567;DHT22;9930;49.240;8.548;2023-01-26T04:42:31;4.20;81.10
19567;DHT22;9930;49.240;8.548;2023-01-26T04:44:57;4.20;81.20
19567;DHT22;9930;49.240;8.548;2023-01-26T04:47:28;4.20;81.20
19567;DHT22;9930;49.240;8.548;2023-01-26T04:49:59;4.20;81.20
19567;DHT22;9930;49.240;8.548;2023-01-26T04:52:29;4.20;81.40
19567;DHT22;9930;49.240;8.548;2023-01-26T04:54:55;4.20;81.20
19567;DHT22;9930;49.240;8.548;2023-01-26T04:57:29;4.20;81.30
19567;DHT22;9930;49.240;8.548;2023-01-26T04:59:55;4.20;81.40
19567;DHT22;9930;49.240;8.548;2023-01-26T05:02:34;4.10;81.30
19567;DHT22;9930;49.240;8.548;2023-01-26T05:05:07;4.10;81.40
19567;DHT22;9930;49.240;8.548;2023-01-26T05:07:35;4.10;81.20
19567;DHT22;9930;49.240;8.548;2023-01-26T05:10:01;4.10;81.30
19567;DHT22;9930;49.240;8.548;2023-01-26T05:12:29;4.10;81.40
19567;DHT22;9930;49.240;8.548;2023-01-26T05:14:59;4.10;81.40
19567;DHT22;9930;49.240;8.548;2023-01-26T05:17:26;4.10;81.50
19567;DHT22;9930;49.240;8.548;2023-01-26T05:19:59;4.10;81.60
19567;DHT22;9930;49.240;8.548;2023-01-26T05:22:33;4.10;81.80
19567;DHT22;9930;49.240;8.548;2023-01-26T05:25:00;4.20;81.70
19567;DHT22;9930;49.240;8.548;2023-01-26T05:27:30;4.20;81.90
19567;DHT22;9930;49.240;8.548;2023-01-26T05:30:04;4.20;81.80
19567;DHT22;9930;49.240;8.548;2023-01-26T05:32:30;4.20;81.90
19567;DHT22;9930;49.240;8.548;2023-01-26T05:35:00;4.20;81.80
19567;DHT22;9930;49.240;8.548;2023-01-26T05:37:30;4.20;81.70
19567;DHT22;9930;49.240;8.548;2023-01-26T05:40:06;4.20;81.80
19567;DHT22;9930;49.240;8.548;2023-01-26T05:42:32;4.30;81.90
19567;DHT22;9930;49.240;8.548;2023-01-26T05:45:00;4.30;81.70
19567;DHT22;9930;49.240;8.548;2023-01-26T05:47:30;4.30;81.80
19567;DHT22;9930;49.240;8.548;2023-01-26T05:50:00;4.30;81.80
19567;DHT22;9930;49.240;8.548;2023-01-26T05:52:31;4.30;81.80
19567;DHT22;9930;49.240;8.548;2023-01-26T05:55:02;4.30;81.70
19567;DHT22;9930;49.240;8.548;2023-01-26T05:57:32;4.30;81.50
19567;DHT22;9930;49.240;8.548;2023-01-26T06:00:02;4.30;81.40
19567;DHT22;9930;49.240;8.548;2023-01-26T06:02:31;4.30;81.40
19567;DHT22;9930;49.240;8.548;2023-01-26T06:05:00;4.30;81.40
19567;DHT22;9930;49.240;8.548;2023-01-26T06:07:30;4.20;81.50
19567;DHT22;9930;49.240;8.548;2023-01-26T06:10:00;4.20;81.40
19567;DHT22;9930;49.240;8.548;2023-01-26T06:12:29;4.20;82.00
19567;DHT22;9930;49.240;8.548;2023-01-26T06:15:01;4.20;81.70
19567;DHT22;9930;49.240;8.548;2023-01-26T06:17:30;4.20;81.60
19567;DHT22;9930;49.240;8.548;2023-01-26T06:20:02;4.20;81.60
19567;DHT22;9930;49.240;8.548;2023-01-26T06:22:30;4.20;81.70
19567;DHT22;9930;49.240;8.548;2023-01-26T06:25:17;4.20;81.70
19567;DHT22;9930;49.240;8.548;2023-01-26T06:27:51;4.20;81.80
19567;DHT22;9930;49.240;8.548;2023-01-26T06:30:31;4.20;81.70
19567;DHT22;9930;49.240;8.548;2023-01-26T06:33:00;4.20;81.80
19567;DHT22;9930;49.240;8.548;2023-01-26T06:35:32;4.20;81.70
19567;DHT22;9930;49.240;8.548;2023-01-26T06:38:00;4.30;81.70
19567;DHT22;9930;49.240;8.548;2023-01-26T06:40:30;4.20;81.40
19567;DHT22;9930;49.240;8.548;2023-01-26T06:43:01;4.20;81.60
19567;DHT22;9930;49.240;8.548;2023-01-26T06:45:30;4.20;81.70
19567;DHT22;9930;49.240;8.548;2023-01-26T06:48:02;4.20;81.80
19567;DHT22;9930;49.240;8.548;2023-01-26T06:50:34;4.20;81.80
19567;DHT22;9930;49.240;8.548;2023-01-26T06:53:33;4.20;81.60
19567;DHT22;9930;49.240;8.548;2023-01-26T06:56:05;4.10;81.80
19567;DHT22;9930;49.240;8.548;2023-01-26T06:58:36;4.20;81.90
19567;DHT22;9930;49.240;8.548;2023-01-26T07:01:08;4.20;82.40
19567;DHT22;9930;49.240;8.548;2023-01-26T07:03:43;4.20;81.90
19567;DHT22;9930;49.240;8.548;2023-01-26T07:06:19;4.20;82.00
19567;DHT22;9930;49.240;8.548;2023-01-26T07:09:03;4.20;82.10
19567;DHT22;9930;49.240;8.548;2023-01-26T07:11:40;4.20;82.20
19567;DHT22;9930;49.240;8.548;2023-01-26T07:14:14;4.20;82.10
19567;DHT22;9930;49.240;8.548;2023-01-26T07:16:44;4.20;82.10
19567;DHT22;9930;49.240;8.548;2023-01-26T07:19:13;4.20;82.00
19567;DHT22;9930;49.240;8.548;2023-01-26T07:22:04;4.20;82.10
19567;DHT22;9930;49.240;8.548;2023-01-26T07:24:30;4.20;82.00
19567;DHT22;9930;49.240;8.548;2023-01-26T07:27:07;4.30;82.00
19567;DHT22;9930;49.240;8.548;2023-01-26T07:29:38;4.20;82.10
19567;DHT22;9930;49.240;8.548;2023-01-26T07:32:06;4.30;82.10
19567;DHT22;9930;49.240;8.548;2023-01-26T07:34:34;4.20;81.80
19567;DHT22;9930;49.240;8.548;2023-01-26T07:37:09;4.20;81.90
19567;DHT22;9930;49.240;8.548;2023-01-26T07:39:38;4.30;82.10
19567;DHT22;9930;49.240;8.548;2023-01-26T07:42:04;4.30;82.20
19567;DHT22;9930;49.240;8.548;2023-01-26T07:44:40;4.30;82.20
19567;DHT22;9930;49.240;8.548;2023-01-26T07:47:11;4.20;82.10
19567;DHT22;9930;49.240;8.548;2023-01-26T07:49:39;4.30;82.30
19567;DHT22;9930;49.240;8.548;2023-01-26T07:52:14;4.30;82.20
19567;DHT22;9930;49.240;8.548;2023-01-26T07:54:40;4.30;82.20
19567;DHT22;9930;49.240;8.548;2023-01-26T07:57:28;4.30;82.20
19567;DHT22;9930;49.240;8.548;2023-01-26T08:00:01;4.30;82.20
19567;DHT22;9930;49.240;8.548;2023-01-26T08:02:30;4.30;82.20
19567;DHT22;9930;49.240;8.548;2023-01-26T08:04:56;4.30;82.10
19567;DHT22;9930;49.240;8.548;2023-01-26T08:07:27;4.40;82.10
19567;DHT22;9930;49.240;8.548;2023-01-26T08:10:02;4.40;82.00
19567;DHT22;9930;49.240;8.548;2023-01-26T08:12:28;4.40;82.00
19567;DHT22;9930;49.240;8.548;2023-01-26T08:14:54;4.30;81.90
19567;DHT22;9930;49.240;8.548;2023-01-26T08:17:20;4.30;82.00
19567;DHT22;9930;49.240;8.548;2023-01-26T08:19:50;4.40;81.90
19567;DHT22;9930;49.240;8.548;2023-01-26T08:22:16;4.40;81.90
19567;DHT22;9930;49.240;8.548;2023-01-26T08:24:44;4.40;82.60
19567;DHT22;9930;49.240;8.548;2023-01-26T08:27:10;4.40;81.90
19567;DHT22;9930;49.240;8.548;2023-01-26T08:29:35;4.40;82.00
19567;DHT22;9930;49.240;8.548;2023-01-26T08:32:04;4.40;82.00
19567;DHT22;9930;49.240;8.548;2023-01-26T08:34:30;4.30;82.00
19567;DHT22;9930;49.240;8.548;2023-01-26T08:36:59;4.40;82.00
19567;DHT22;9930;49.240;8.548;2023-01-26T08:39:28;4.40;82.00
19567;DHT22;9930;49.240;8.548;2023-01-26T08:42:00;4.40;82.10
19567;DHT22;9930;49.240;8.548;2023-01-26T08:44:28;4.40;82.10
19567;DHT22;9930;49.240;8.548;2023-01-26T08:46:57;4.40;82.10
19567;DHT22;9930;49.240;8.548;2023-01-26T08:49:23;4.50;82.10
19567;DHT22;9930;49.240;8.548;2023-01-26T08:51:49;4.40;82.00
19567;DHT22;9930;49.240;8.548;2023-01-26T08:54:15;4.40;82.00
19567;DHT22;9930;49.240;8.548;2023-01-26T08:56:43;4.50;82.00
19567;DHT22;9930;49.240;8.548;2023-01-26T08:59:11;4.50;81.90
19567;DHT22;9930;49.240;8.548;2023-01-26T09:01:36;4.50;82.00
19567;DHT22;9930;49.240;8.548;2023-01-26T09:04:02;4.50;82.00
19567;DHT22;9930;49.240;8.548;2023-01-26T09:06:33;4.50;82.00
19567;DHT22;9930;49.240;8.548;2023-01-26T09:08:59;4.50;82.00
19567;DHT22;9930;49.240;8.548;2023-01-26T09:11:26;4.50;82.00
19567;DHT22;9930;49.240;8.548;2023-01-26T09:13:53;4.50;82.00
19567;DHT22;9930;49.240;8.548;2023-01-26T09:16:22;4.50;82.10
19567;DHT22;9930;49.240;8.548;2023-01-26T09:18:51;4.50;82.10
19567;DHT22;9930;49.240;8.548;2023-01-26T09:21:18;4.50;82.10
19567;DHT22;9930;49.240;8.548;2023-01-26T09:23:44;4.50;82.00
19567;DHT22;9930;49.240;8.548;2023-01-26T09:26:10;4.50;82.00
19567;DHT22;9930;49.240;8.548;2023-01-26T09:28:36;4.60;81.90
19567;DHT22;9930;49.240;8.548;2023-01-26T09:31:03;4.50;81.80
19567;DHT22;9930;49.240;8.548;2023-01-26T09:33:33;4.50;81.80
19567;DHT22;9930;49.240;8.548;2023-01-26T09:36:07;4.50;81.60
19567;DHT22;9930;49.240;8.548;2023-01-26T09:38:37;4.50;81.80
19567;DHT22;9930;49.240;8.548;2023-01-26T09:43:50;4.40;81.80
19567;DHT22;9930;49.240;8.548;2023-01-26T09:49:24;4.40;81.60
19567;DHT22;9930;49.240;8.548;2023-01-26T09:52:31;4.30;81.60
19567;DHT22;9930;49.240;8.548;2023-01-26T09:55:04;4.30;81.80
19567;DHT22;9930;49.240;8.548;2023-01-26T09:57:48;4.30;81.60
19567;DHT22;9930;49.240;8.548;2023-01-26T10:00:25;4.20;81.70
19567;DHT22;9930;49.240;8.548;2023-01-26T10:05:51;4.20;81.80
19567;DHT22;9930;49.240;8.548;2023-01-26T10:08:24;4.20;81.80
19567;DHT22;9930;49.240;8.548;2023-01-26T10:10:59;4.20;82.00
19567;DHT22;9930;49.240;8.548;2023-01-26T10:13:30;4.20;82.00
19567;DHT22;9930;49.240;8.548;2023-01-26T10:16:00;4.20;82.20
19567;DHT22;9930;49.240;8.548;2023-01-26T10:18:48;4.20;82.80
19567;DHT22;9930;49.240;8.548;2023-01-26T10:21:20;4.20;82.30
19567;DHT22;9930;49.240;8.548;2023-01-26T10:23:51;4.20;82.00
19567;DHT22;9930;49.240;8.548;2023-01-26T10:26:19;4.20;82.00
19567;DHT22;9930;49.240;8.548;2023-01-26T10:28:50;4.20;82.00
19567;DHT22;9930;49.240;8.548;2023-01-26T10:31:21;4.20;82.00
19567;DHT22;9930;49.240;8.548;2023-01-26T10:34:14;4.20;82.10
19567;DHT22;9930;49.240;8.548;2023-01-26T10:36:55;4.20;82.30
19567;DHT22;9930;49.240;8.548;2023-01-26T10:39:55;4.20;82.10
19567;DHT22;9930;49.240;8.548;2023-01-26T10:42:33;4.20;82.10
19567;DHT22;9930;49.240;8.548;2023-01-26T10:48:03;4.20;81.80
19567;DHT22;9930;49.240;8.548;2023-01-26T10:50:31;4.20;81.80
19567;DHT22;9930;49.240;8.548;2023-01-26T10:53:02;4.20;82.00
19567;DHT22;9930;49.240;8.548;2023-01-26T10:55:32;4.20;81.90
19567;DHT22;9930;49.240;8.548;2023-01-26T10:58:00;4.20;81.90
19567;DHT22;9930;49.240;8.548;2023-01-26T11:00:32;4.20;81.80
19567;DHT22;9930;49.240;8.548;2023-01-26T11:05:38;4.30;81.80
19567;DHT22;9930;49.240;8.548;2023-01-26T11:08:36;4.30;81.50
19567;DHT22;9930;49.240;8.548;2023-01-26T11:11:05;4.30;81.40
19567;DHT22;9930;49.240;8.548;2023-01-26T11:13:35;4.30;81.50
19567;DHT22;9930;49.240;8.548;2023-01-26T11:16:19;4.40;81.40
19567;DHT22;9930;49.240;8.548;2023-01-26T11:27:14;4.40;81.00
19567;DHT22;9930;49.240;8.548;2023-01-26T11:36:11;4.40;80.70
19567;DHT22;9930;49.240;8.548;2023-01-26T11:50:40;4.30;80.00
19567;DHT22;9930;49.240;8.548;2023-01-26T11:56:55;4.30;80.20
19567;DHT22;9930;49.240;8.548;2023-01-26T11:59:51;4.30;80.30
19567;DHT22;9930;49.240;8.548;2023-01-26T12:02:35;4.30;80.30
19567;DHT22;9930;49.240;8.548;2023-01-26T12:05:17;4.40;80.20
19567;DHT22;9930;49.240;8.548;2023-01-26T12:10:34;4.40;80.20
19567;DHT22;9930;49.240;8.548;2023-01-26T12:13:55;4.40;80.00
19567;DHT22;9930;49.240;8.548;2023-01-26T12:16:17;4.40;80.00
19567;DHT22;9930;49.240;8.548;2023-01-26T12:25:31;4.40;79.70
19567;DHT22;9930;49.240;8.548;2023-01-26T12:33:32;4.50;79.70
19567;DHT22;9930;49.240;8.548;2023-01-26T12:39:23;4.50;79.50
19567;DHT22;9930;49.240;8.548;2023-01-26T12:44:46;4.40;79.50
19567;DHT22;9930;49.240;8.548;2023-01-26T12:47:26;4.50;79.60
19567;DHT22;9930;49.240;8.548;2023-01-26T12:50:15;4.50;79.60
19567;DHT22;9930;49.240;8.548;2023-01-26T12:56:11;4.50;79.40
19567;DHT22;9930;49.240;8.548;2023-01-26T12:58:46;4.50;79.30
19567;DHT22;9930;49.240;8.548;2023-01-26T13:01:16;4.50;80.20
19567;DHT22;9930;49.240;8.548;2023-01-26T13:04:00;4.50;79.30
19567;DHT22;9930;49.240;8.548;2023-01-26T13:06:34;4.50;79.00
19567;DHT22;9930;49.240;8.548;2023-01-26T13:09:23;4.40;79.20
19567;DHT22;9930;49.240;8.548;2023-01-26T13:11:59;4.40;79.00
19567;DHT22;9930;49.240;8.548;2023-01-26T13:14:28;4.30;78.90
19567;DHT22;9930;49.240;8.548;2023-01-26T13:25:24;4.30;79.30
19567;DHT22;9930;49.240;8.548;2023-01-26T13:28:02;4.30;79.20
19567;DHT22;9930;49.240;8.548;2023-01-26T13:30:41;4.30;79.50
19567;DHT22;9930;49.240;8.548;2023-01-26T13:33:23;4.30;79.50
19567;DHT22;9930;49.240;8.548;2023-01-26T13:35:57;4.30;79.30
19567;DHT22;9930;49.240;8.548;2023-01-26T13:38:40;4.30;79.50
19567;DHT22;9930;49.240;8.548;2023-01-26T13:41:15;4.30;79.30
19567;DHT22;9930;49.240;8.548;2023-01-26T13:44:13;4.30;79.20
19567;DHT22;9930;49.240;8.548;2023-01-26T13:46:51;4.30;78.90
19567;DHT22;9930;49.240;8.548;2023-01-26T13:49:40;4.30;79.00
19567;DHT22;9930;49.240;8.548;2023-01-26T13:52:21;4.20;78.90
19567;DHT22;9930;49.240;8.548;2023-01-26T13:54:56;4.20;79.00
19567;DHT22;9930;49.240;8.548;2023-01-26T13:57:29;4.20;79.10
19567;DHT22;9930;49.240;8.548;2023-01-26T13:59:58;4.20;79.00
19567;DHT22;9930;49.240;8.548;2023-01-26T14:02:34;4.20;79.00
19567;DHT22;9930;49.240;8.548;2023-01-26T14:05:03;4.20;79.00
19567;DHT22;9930;49.240;8.548;2023-01-26T14:07:37;4.20;79.10
19567;DHT22;9930;49.240;8.548;2023-01-26T14:10:05;4.20;79.00
19567;DHT22;9930;49.240;8.548;2023-01-26T14:12:47;4.20;79.00
19567;DHT22;9930;49.240;8.548;2023-01-26T14:15:24;4.10;78.80
19567;DHT22;9930;49.240;8.548;2023-01-26T14:18:03;4.20;79.10
19567;DHT22;9930;49.240;8.548;2023-01-26T14:20:38;4.10;78.90
19567;DHT22;9930;49.240;8.548;2023-01-26T14:23:13;4.20;79.00
19567;DHT22;9930;49.240;8.548;2023-01-26T14:25:55;4.20;78.90
19567;DHT22;9930;49.240;8.548;2023-01-26T14:28:33;4.20;78.90
19567;DHT22;9930;49.240;8.548;2023-01-26T14:31:09;4.10;78.90
19567;DHT22;9930;49.240;8.548;2023-01-26T14:33:49;4.10;78.80
19567;DHT22;9930;49.240;8.548;2023-01-26T14:36:27;4.10;78.80
19567;DHT22;9930;49.240;8.548;2023-01-26T14:39:02;4.10;78.90
19567;DHT22;9930;49.240;8.548;2023-01-26T14:41:43;4.10;79.00
19567;DHT22;9930;49.240;8.548;2023-01-26T14:44:10;4.10;79.10
19567;DHT22;9930;49.240;8.548;2023-01-26T14:49:44;4.10;78.70
19567;DHT22;9930;49.240;8.548;2023-01-26T14:57:48;4.10;78.90
19567;DHT22;9930;49.240;8.548;2023-01-26T15:00:35;4.10;78.90
19567;DHT22;9930;49.240;8.548;2023-01-26T15:03:10;4.10;78.70
19567;DHT22;9930;49.240;8.548;2023-01-26T15:05:40;4.10;78.80
19567;DHT22;9930;49.240;8.548;2023-01-26T15:08:23;4.10;78.60
19567;DHT22;9930;49.240;8.548;2023-01-26T15:11:03;4.10;78.50
19567;DHT22;9930;49.240;8.548;2023-01-26T15:13:52;4.10;78.70
19567;DHT22;9930;49.240;8.548;2023-01-26T15:16:23;4.10;78.80
19567;DHT22;9930;49.240;8.548;2023-01-26T15:19:02;4.10;78.70
19567;DHT22;9930;49.240;8.548;2023-01-26T15:21:35;4.10;78.80
19567;DHT22;9930;49.240;8.548;2023-01-26T15:24:12;4.10;78.80
19567;DHT22;9930;49.240;8.548;2023-01-26T15:26:43;4.10;78.80
19567;DHT22;9930;49.240;8.548;2023-01-26T15:29:34;4.10;78.70
19567;DHT22;9930;49.240;8.548;2023-01-26T15:32:00;4.00;78.40
19567;DHT22;9930;49.240;8.548;2023-01-26T15:39:59;4.00;78.70
19567;DHT22;9930;49.240;8.548;2023-01-26T15:42:29;4.10;78.60
19567;DHT22;9930;49.240;8.548;2023-01-26T15:44:59;4.00;78.60
19567;DHT22;9930;49.240;8.548;2023-01-26T15:47:26;4.00;78.40
19567;DHT22;9930;49.240;8.548;2023-01-26T15:50:00;4.00;78.30
19567;DHT22;9930;49.240;8.548;2023-01-26T15:52:27;3.90;78.30
19567;DHT22;9930;49.240;8.548;2023-01-26T15:54:54;3.90;78.40
19567;DHT22;9930;49.240;8.548;2023-01-26T15:57:20;4.00;78.40
19567;DHT22;9930;49.240;8.548;2023-01-26T15:59:46;3.90;78.40
19567;DHT22;9930;49.240;8.548;2023-01-26T16:02:17;3.90;78.30
19567;DHT22;9930;49.240;8.548;2023-01-26T16:04:48;3.90;78.30
19567;DHT22;9930;49.240;8.548;2023-01-26T16:07:16;3.90;78.20
19567;DHT22;9930;49.240;8.548;2023-01-26T16:09:44;3.90;78.30
19567;DHT22;9930;49.240;8.548;2023-01-26T16:12:16;3.90;78.40
19567;DHT22;9930;49.240;8.548;2023-01-26T16:14:43;3.90;78.40
19567;DHT22;9930;49.240;8.548;2023-01-26T16:17:16;3.90;78.30
19567;DHT22;9930;49.240;8.548;2023-01-26T16:19:45;3.90;78.20
19567;DHT22;9930;49.240;8.548;2023-01-26T16:22:11;3.90;78.20
19567;DHT22;9930;49.240;8.548;2023-01-26T16:24:39;3.90;78.10
19567;DHT22;9930;49.240;8.548;2023-01-26T16:27:06;3.90;78.10
19567;DHT22;9930;49.240;8.548;2023-01-26T16:29:33;3.90;78.10
19567;DHT22;9930;49.240;8.548;2023-01-26T16:32:04;3.90;78.10
19567;DHT22;9930;49.240;8.548;2023-01-26T16:35:11;3.90;78.30
19567;DHT22;9930;49.240;8.548;2023-01-26T16:37:37;3.90;78.10
19567;DHT22;9930;49.240;8.548;2023-01-26T16:40:06;3.90;78.20
19567;DHT22;9930;49.240;8.548;2023-01-26T16:42:38;3.90;78.10
19567;DHT22;9930;49.240;8.548;2023-01-26T16:45:09;3.90;77.90
19567;DHT22;9930;49.240;8.548;2023-01-26T16:47:44;3.90;77.90
19567;DHT22;9930;49.240;8.548;2023-01-26T16:50:13;3.90;78.00
19567;DHT22;9930;49.240;8.548;2023-01-26T16:52:40;3.90;78.00
19567;DHT22;9930;49.240;8.548;2023-01-26T16:55:07;3.90;78.10
19567;DHT22;9930;49.240;8.548;2023-01-26T16:57:41;3.90;77.90
19567;DHT22;9930;49.240;8.548;2023-01-26T17:00:30;3.90;77.80
19567;DHT22;9930;49.240;8.548;2023-01-26T17:02:55;3.90;77.60
19567;DHT22;9930;49.240;8.548;2023-01-26T17:05:24;3.90;77.70
19567;DHT22;9930;49.240;8.548;2023-01-26T17:07:54;3.90;77.70
19567;DHT22;9930;49.240;8.548;2023-01-26T17:10:25;3.90;77.70
19567;DHT22;9930;49.240;8.548;2023-01-26T17:12:50;3.90;77.80
19567;DHT22;9930;49.240;8.548;2023-01-26T17:15:17;3.90;77.70
19567;DHT22;9930;49.240;8.548;2023-01-26T17:17:46;3.90;77.70
19567;DHT22;9930;49.240;8.548;2023-01-26T17:20:13;3.90;77.70
19567;DHT22;9930;49.240;8.548;2023-01-26T17:22:39;3.90;77.70
19567;DHT22;9930;49.240;8.548;2023-01-26T17:25:05;3.90;77.70
19567;DHT22;9930;49.240;8.548;2023-01-26T17:27:32;3.90;77.70
19567;DHT22;9930;49.240;8.548;2023-01-26T17:30:00;3.90;77.70
19567;DHT22;9930;49.240;8.548;2023-01-26T17:32:30;3.90;77.60
19567;DHT22;9930;49.240;8.548;2023-01-26T17:34:59;3.90;77.60
19567;DHT22;9930;49.240;8.548;2023-01-26T17:37:29;3.90;77.50
19567;DHT22;9930;49.240;8.548;2023-01-26T17:39:56;3.90;77.50
19567;DHT22;9930;49.240;8.548;2023-01-26T17:42:22;3.90;77.40
19567;DHT22;9930;49.240;8.548;2023-01-26T17:44:50;3.90;77.50
19567;DHT22;9930;49.240;8.548;2023-01-26T17:47:16;3.90;77.50
19567;DHT22;9930;49.240;8.548;2023-01-26T17:49:41;3.90;77.40
19567;DHT22;9930;49.240;8.548;2023-01-26T17:52:09;3.90;77.40
19567;DHT22;9930;49.240;8.548;2023-01-26T17:54:38;3.90;77.40
19567;DHT22;9930;49.240;8.548;2023-01-26T17:57:08;3.90;77.30
19567;DHT22;9930;49.240;8.548;2023-01-26T17:59:34;3.90;77.40
19567;DHT22;9930;49.240;8.548;2023-01-26T18:02:02;3.90;77.30
19567;DHT22;9930;49.240;8.548;2023-01-26T18:04:37;3.90;77.30
19567;DHT22;9930;49.240;8.548;2023-01-26T18:07:05;3.90;77.10
19567;DHT22;9930;49.240;8.548;2023-01-26T18:09:31;3.90;77.30
19567;DHT22;9930;49.240;8.548;2023-01-26T18:11:57;3.90;77.10
19567;DHT22;9930;49.240;8.548;2023-01-26T18:14:23;3.90;77.10
19567;DHT22;9930;49.240;8.548;2023-01-26T18:16:53;3.90;77.10
19567;DHT22;9930;49.240;8.548;2023-01-26T18:19:19;3.90;77.30